Time;durP1;ratioP1;P1;durP2;ratioP2;P2;SDS_P1;SDS_P2;PMS_P1;PMS_P2;Temp;Humidity;BMP_temperature;BMP_pressure;BME280_temperature;BME280_humidity;BME280_pressure;Samples;Min_cycle;Max_cycle;Signal;HPM_P1;HPM_P2
2022/03/22 00:00:23;;;;;;;14.40;9.45;;;1.60;52.90;;;;;;5054202;28;20013;-54
2022/03/22 00:02:48;;;;;;;16.02;10.20;;;1.60;53.40;;;;;;5054327;28;20368;-56
2022/03/22 00:05:15;;;;;;;17.13;9.82;;;1.60;53.70;;;;;;5053945;28;20021;-58
2022/03/22 00:07:42;;;;;;;16.85;10.05;;;1.50;54.30;;;;;;5053939;28;20028;-58
2022/03/22 00:10:09;;;;;;;15.02;10.02;;;1.50;55.00;;;;;;5054030;28;20674;-58
2022/03/22 00:12:35;;;;;;;19.90;10.15;;;1.50;55.00;;;;;;5053927;28;20095;-58
2022/03/22 00:15:05;;;;;;;19.25;10.55;;;1.50;54.70;;;;;;5052768;28;20100;-58
2022/03/22 00:17:30;;;;;;;19.42;11.18;;;1.60;53.70;;;;;;5054037;28;20028;-58
2022/03/22 00:19:56;;;;;;;17.30;10.35;;;1.60;53.30;;;;;;5053850;28;20029;-57
2022/03/22 00:22:24;;;;;;;12.02;8.60;;;1.60;52.30;;;;;;5053730;28;20045;-57
2022/03/22 00:24:51;;;;;;;11.32;9.15;;;1.90;51.10;;;;;;5054045;28;20028;-59
2022/03/22 00:27:16;;;;;;;16.65;10.15;;;1.90;52.50;;;;;;5053778;28;20025;-58
2022/03/22 00:29:42;;;;;;;11.73;8.70;;;1.80;52.40;;;;;;5052478;28;20104;-58
2022/03/22 00:32:08;;;;;;;15.25;8.82;;;1.80;51.90;;;;;;5053704;28;20025;-59
2022/03/22 00:34:41;;;;;;;10.30;8.32;;;1.80;51.20;;;;;;5053725;28;20506;-57
2022/03/22 00:37:07;;;;;;;11.82;9.25;;;1.70;51.60;;;;;;5053543;28;20117;-58
2022/03/22 00:39:33;;;;;;;24.58;9.27;;;1.70;51.60;;;;;;5053703;28;20110;-58
2022/03/22 00:41:58;;;;;;;10.77;7.70;;;1.70;51.80;;;;;;5053366;28;20045;-58
2022/03/22 00:44:24;;;;;;;11.80;8.25;;;1.70;52.10;;;;;;5053559;28;20424;-57
2022/03/22 00:46:50;;;;;;;12.80;8.57;;;1.70;51.40;;;;;;5053290;28;20116;-58
2022/03/22 00:49:16;;;;;;;10.13;8.32;;;1.70;51.50;;;;;;5053321;28;20053;-58
2022/03/22 00:51:41;;;;;;;15.50;8.65;;;1.80;51.00;;;;;;5053199;28;20086;-58
2022/03/22 00:54:08;;;;;;;17.35;8.40;;;1.90;49.70;;;;;;5053254;28;20692;-58
2022/03/22 00:56:34;;;;;;;13.80;9.98;;;2.00;48.50;;;;;;5053318;28;20036;-58
2022/03/22 01:01:44;;;;;;;12.77;8.13;;;2.00;49.60;;;;;;5053162;28;20040;-58
2022/03/22 01:04:10;;;;;;;10.25;8.27;;;2.00;49.90;;;;;;5053025;28;20033;-58
2022/03/22 01:06:35;;;;;;;15.73;9.02;;;1.90;49.70;;;;;;5052968;28;20379;-59
2022/03/22 01:09:01;;;;;;;11.45;9.52;;;1.90;49.40;;;;;;5052432;28;20033;-58
2022/03/22 01:11:27;;;;;;;9.98;8.32;;;1.90;49.80;;;;;;5050430;28;20090;-57
2022/03/22 01:13:53;;;;;;;12.13;9.40;;;1.90;50.40;;;;;;5050239;28;20040;-58
2022/03/22 01:16:18;;;;;;;12.73;8.60;;;1.90;50.10;;;;;;5051504;28;20036;-59
2022/03/22 01:18:44;;;;;;;12.13;9.18;;;1.90;50.00;;;;;;5051479;28;20036;-58
2022/03/22 01:21:10;;;;;;;11.85;8.20;;;1.80;50.70;;;;;;5051167;28;20024;-58
2022/03/22 01:23:36;;;;;;;11.73;8.10;;;1.70;50.90;;;;;;5050980;28;20025;-58
2022/03/22 01:26:02;;;;;;;16.38;9.20;;;1.70;49.40;;;;;;5050723;28;20063;-57
2022/03/22 01:28:28;;;;;;;12.73;8.70;;;1.60;50.40;;;;;;5051276;28;20025;-57
2022/03/22 01:30:54;;;;;;;11.93;8.35;;;1.60;50.50;;;;;;5051007;28;20028;-58
2022/03/22 01:33:20;;;;;;;14.73;9.15;;;1.60;50.70;;;;;;5050549;28;20025;-58
2022/03/22 01:35:45;;;;;;;16.60;8.77;;;1.50;52.30;;;;;;5050548;28;20021;-58
2022/03/22 01:38:11;;;;;;;17.88;8.27;;;1.50;50.90;;;;;;5050841;28;20483;-57
2022/03/22 01:40:37;;;;;;;12.10;8.73;;;1.40;52.40;;;;;;5049559;28;20377;-58
2022/03/22 01:43:03;;;;;;;12.77;9.35;;;1.30;53.90;;;;;;5050733;28;20013;-57
2022/03/22 01:45:29;;;;;;;13.00;9.50;;;1.20;54.30;;;;;;5050729;28;20017;-58
2022/03/22 01:47:59;;;;;;;25.17;9.57;;;1.00;55.20;;;;;;5049605;28;20091;-58
2022/03/22 01:50:24;;;;;;;21.05;9.00;;;0.90;56.60;;;;;;5051978;28;20025;-57
2022/03/22 01:52:50;;;;;;;15.90;8.88;;;0.80;56.00;;;;;;5051012;28;20757;-58
2022/03/22 01:55:18;;;;;;;13.82;8.50;;;0.70;56.10;;;;;;5050905;28;20025;-58
2022/03/22 01:57:44;;;;;;;12.23;9.93;;;0.60;55.60;;;;;;5050878;28;20418;-58
2022/03/22 02:00:16;;;;;;;11.82;8.93;;;0.50;55.90;;;;;;5051057;28;20021;-57
2022/03/22 02:08:13;;;;;;;12.00;9.20;;;0.00;59.10;;;;;;5052254;28;20071;-56
2022/03/22 02:10:39;;;;;;;11.63;9.18;;;-0.20;60.10;;;;;;5051777;28;20461;-56
2022/03/22 02:13:05;;;;;;;17.38;9.57;;;-0.10;59.70;;;;;;5051799;28;20041;-57
2022/03/22 02:15:31;;;;;;;16.60;9.07;;;0.00;59.90;;;;;;5051902;28;20353;-56
2022/03/22 02:17:59;;;;;;;23.08;10.15;;;0.10;59.80;;;;;;5051765;28;20052;-55
2022/03/22 02:20:25;;;;;;;14.15;8.73;;;0.10;60.20;;;;;;5051674;28;20506;-57
2022/03/22 02:23:05;;;;;;;13.00;9.23;;;0.10;59.20;;;;;;5051700;28;20033;-56
2022/03/22 02:25:35;;;;;;;12.98;8.27;;;0.30;57.00;;;;;;5051599;28;20717;-59
2022/03/22 02:28:02;;;;;;;11.18;7.95;;;0.50;56.50;;;;;;5051399;28;20104;-58
2022/03/22 02:30:28;;;;;;;14.65;8.90;;;0.60;56.20;;;;;;5051776;28;20479;-58
2022/03/22 02:32:56;;;;;;;11.32;9.13;;;0.60;56.50;;;;;;5051166;28;20025;-55
2022/03/22 02:35:23;;;;;;;19.27;9.63;;;0.60;57.10;;;;;;5051222;28;20032;-59
2022/03/22 02:37:50;;;;;;;12.32;7.85;;;0.60;57.70;;;;;;5050248;28;20411;-59
2022/03/22 02:40:16;;;;;;;11.60;8.35;;;0.60;57.00;;;;;;5051192;28;20040;-59
2022/03/22 02:42:50;;;;;;;15.77;9.60;;;0.60;56.90;;;;;;5051057;28;20029;-58
2022/03/22 02:45:17;;;;;;;16.25;9.70;;;0.50;57.20;;;;;;5051044;28;20033;-58
2022/03/22 02:47:43;;;;;;;16.55;8.77;;;0.50;57.60;;;;;;5050540;28;20032;-57
2022/03/22 02:50:10;;;;;;;15.82;9.45;;;0.50;57.20;;;;;;5051138;28;20457;-57
2022/03/22 02:52:37;;;;;;;16.83;8.90;;;0.40;58.80;;;;;;5051365;28;20528;-58
2022/03/22 02:55:06;;;;;;;14.90;8.82;;;0.40;57.90;;;;;;5051093;28;20364;-58
2022/03/22 02:57:35;;;;;;;14.63;8.32;;;0.40;57.40;;;;;;5051365;28;20029;-59
2022/03/22 03:00:04;;;;;;;17.33;9.02;;;0.50;57.50;;;;;;5051203;28;20595;-59
2022/03/22 03:02:30;;;;;;;14.98;9.27;;;0.50;56.80;;;;;;5051242;28;20106;-59
2022/03/22 03:04:56;;;;;;;12.57;8.50;;;0.60;55.90;;;;;;5051056;28;20037;-58
2022/03/22 03:07:22;;;;;;;12.93;9.02;;;0.60;56.10;;;;;;5049955;28;20029;-58
2022/03/22 03:09:48;;;;;;;11.57;8.63;;;0.60;55.50;;;;;;5050824;28;20027;-58
2022/03/22 03:12:14;;;;;;;11.50;8.43;;;0.60;56.60;;;;;;5051021;28;20071;-58
2022/03/22 03:14:40;;;;;;;9.82;7.82;;;0.70;56.60;;;;;;5051021;28;20419;-59
2022/03/22 03:17:08;;;;;;;12.27;8.77;;;0.60;56.20;;;;;;5051240;28;20075;-58
2022/03/22 03:19:34;;;;;;;11.02;8.32;;;0.60;57.20;;;;;;5050865;28;20622;-58
2022/03/22 03:22:00;;;;;;;10.88;7.97;;;0.60;56.30;;;;;;5049673;28;20028;-58
2022/03/22 03:24:26;;;;;;;10.68;9.07;;;0.50;56.80;;;;;;5050664;28;20027;-57
2022/03/22 03:26:52;;;;;;;13.63;8.60;;;0.50;57.60;;;;;;5050683;28;20052;-58
2022/03/22 03:29:17;;;;;;;18.33;10.05;;;0.40;58.80;;;;;;5051211;28;20100;-58
2022/03/22 03:31:43;;;;;;;15.48;9.27;;;0.30;59.00;;;;;;5050885;28;20028;-57
2022/03/22 03:34:09;;;;;;;14.60;7.68;;;0.20;59.80;;;;;;5049494;28;20116;-58
2022/03/22 03:36:36;;;;;;;17.17;9.40;;;0.30;60.50;;;;;;5051080;28;20033;-58
2022/03/22 03:39:03;;;;;;;13.77;8.85;;;0.20;60.10;;;;;;5050790;28;20028;-58
2022/03/22 03:47:04;;;;;;;14.25;8.23;;;0.10;61.00;;;;;;5050333;28;20155;-59
2022/03/22 03:49:32;;;;;;;17.85;9.90;;;0.20;60.00;;;;;;5053452;28;20025;-58
2022/03/22 03:51:58;;;;;;;15.38;9.05;;;0.10;60.10;;;;;;5053965;28;20049;-59
2022/03/22 03:54:23;;;;;;;13.15;9.82;;;0.10;60.40;;;;;;5054216;28;20044;-59
2022/03/22 03:56:49;;;;;;;15.32;8.73;;;0.10;60.50;;;;;;5054323;28;20099;-59
2022/03/22 03:59:15;;;;;;;12.18;8.82;;;0.10;60.40;;;;;;5054416;28;20055;-59
2022/03/22 04:01:40;;;;;;;13.90;9.30;;;0.00;60.20;;;;;;5054084;28;20029;-60
2022/03/22 04:04:06;;;;;;;21.60;9.70;;;0.00;61.00;;;;;;5054351;28;20029;-59
2022/03/22 04:06:33;;;;;;;15.68;9.82;;;0.10;60.70;;;;;;5052988;28;20055;-57
2022/03/22 04:08:58;;;;;;;14.77;10.07;;;0.10;61.30;;;;;;5054094;28;20055;-59
2022/03/22 04:11:24;;;;;;;12.00;9.27;;;0.00;62.40;;;;;;5054214;28;20025;-59
2022/03/22 04:13:50;;;;;;;13.15;9.48;;;0.00;62.70;;;;;;5053767;28;20040;-59
2022/03/22 04:16:15;;;;;;;12.27;8.73;;;-0.10;63.90;;;;;;5053906;28;20025;-60
2022/03/22 04:18:41;;;;;;;14.00;8.63;;;-0.10;63.10;;;;;;5052594;28;20033;-57
2022/03/22 04:21:07;;;;;;;14.50;8.95;;;-0.30;65.40;;;;;;5052766;28;20025;-56
2022/03/22 04:23:33;;;;;;;15.73;8.95;;;-0.20;65.50;;;;;;5052571;28;20472;-60
2022/03/22 04:25:59;;;;;;;13.68;9.00;;;-0.30;66.60;;;;;;5052508;28;20037;-59
2022/03/22 04:33:53;;;;;;;18.25;8.80;;;-0.30;65.10;;;;;;5053591;28;20113;-59
2022/03/22 04:36:19;;;;;;;13.40;8.15;;;-0.20;62.30;;;;;;5053454;28;20443;-58
2022/03/22 04:38:44;;;;;;;20.35;8.73;;;-0.10;61.00;;;;;;5053158;28;20036;-60
2022/03/22 04:41:10;;;;;;;20.30;10.38;;;0.00;61.10;;;;;;5053151;28;20123;-59
2022/03/22 04:43:36;;;;;;;20.38;9.48;;;0.10;61.30;;;;;;5053105;28;20063;-59
2022/03/22 04:46:01;;;;;;;24.95;13.70;;;0.10;61.60;;;;;;5053446;28;20049;-59
2022/03/22 04:48:28;;;;;;;22.77;11.82;;;0.10;62.40;;;;;;5053368;28;20021;-59
2022/03/22 04:56:43;;;;;;;22.17;10.82;;;0.00;65.10;;;;;;5053154;28;20017;-59
2022/03/22 04:59:07;;;;;;;49.63;20.00;;;-0.30;68.00;;;;;;5053000;28;20066;-58
2022/03/22 05:01:33;;;;;;;24.20;13.23;;;-0.50;70.80;;;;;;5052639;28;20111;-59
2022/03/22 05:03:59;;;;;;;14.95;10.20;;;-0.60;71.80;;;;;;5052933;28;20021;-59
2022/03/22 05:06:28;;;;;;;28.88;16.13;;;-0.80;74.70;;;;;;5053152;28;20028;-60
2022/03/22 05:08:54;;;;;;;73.32;29.42;;;-0.90;77.50;;;;;;5052764;28;20029;-58
2022/03/22 05:11:23;;;;;;;26.10;13.35;;;-1.00;82.40;;;;;;5053048;28;20167;-60
2022/03/22 05:13:49;;;;;;;67.78;29.55;;;-1.10;83.70;;;;;;5052635;28;20041;-60
2022/03/22 05:16:15;;;;;;;46.17;21.60;;;-1.20;86.60;;;;;;5053039;28;20048;-59
2022/03/22 05:18:41;;;;;;;48.20;20.00;;;-1.20;88.90;;;;;;5052848;28;20025;-60
2022/03/22 05:21:07;;;;;;;45.95;20.08;;;-1.20;89.10;;;;;;5052814;28;20017;-59
2022/03/22 05:23:36;;;;;;;104.50;35.65;;;-1.10;90.60;;;;;;5052834;28;20052;-59
2022/03/22 05:26:01;;;;;;;26.23;13.38;;;-1.10;91.10;;;;;;5052652;28;20111;-59
2022/03/22 05:28:27;;;;;;;28.40;14.57;;;-1.10;91.00;;;;;;5052729;28;20108;-56
2022/03/22 05:30:53;;;;;;;105.25;32.90;;;-1.00;90.90;;;;;;5052333;28;20486;-60
2022/03/22 05:33:18;;;;;;;123.13;42.40;;;-1.00;92.00;;;;;;5052619;28;20470;-59
2022/03/22 05:35:44;;;;;;;18.23;11.95;;;-0.90;92.50;;;;;;5052510;28;20025;-59
2022/03/22 05:38:10;;;;;;;18.77;11.95;;;-0.90;93.30;;;;;;5050926;28;20112;-60
2022/03/22 05:40:35;;;;;;;384.85;116.32;;;-1.00;93.30;;;;;;5052394;28;20367;-60
2022/03/22 05:43:01;;;;;;;58.40;25.63;;;-1.00;95.00;;;;;;5052230;28;20035;-60
2022/03/22 05:45:27;;;;;;;228.88;70.22;;;-1.10;94.50;;;;;;5050689;28;20055;-60
2022/03/22 05:47:53;;;;;;;103.05;37.97;;;-1.00;95.80;;;;;;5052082;28;20017;-60
2022/03/22 05:50:19;;;;;;;96.10;31.13;;;-1.00;94.90;;;;;;5051268;28;20051;-60
2022/03/22 05:52:51;;;;;;;21.55;13.70;;;-0.90;95.00;;;;;;5052264;28;20025;-60
2022/03/22 05:55:17;;;;;;;22.30;10.48;;;-0.80;94.40;;;;;;5051952;28;20021;-60
2022/03/22 05:57:43;;;;;;;20.98;11.23;;;-0.70;94.70;;;;;;5051911;28;20029;-60
2022/03/22 06:00:11;;;;;;;14.35;10.90;;;-0.70;95.60;;;;;;5052036;28;20032;-60
2022/03/22 06:02:38;;;;;;;15.35;10.55;;;-0.60;95.30;;;;;;5051869;28;20029;-60
2022/03/22 06:05:11;;;;;;;22.08;13.70;;;-0.60;96.10;;;;;;5052057;28;20107;-60
2022/03/22 06:07:38;;;;;;;21.15;12.40;;;-0.70;95.90;;;;;;5051701;28;20028;-60
2022/03/22 06:10:05;;;;;;;17.30;11.80;;;-0.60;95.30;;;;;;5051933;28;20025;-60
2022/03/22 06:12:41;;;;;;;21.33;12.90;;;-0.50;95.70;;;;;;5050591;28;20025;-60
2022/03/22 06:15:16;;;;;;;15.40;11.85;;;-0.40;94.20;;;;;;5052017;28;20565;-60
2022/03/22 06:17:45;;;;;;;14.05;10.43;;;-0.30;93.50;;;;;;5051700;28;20363;-60
2022/03/22 06:20:11;;;;;;;18.02;10.18;;;-0.20;93.30;;;;;;5050593;28;20039;-60
2022/03/22 06:22:37;;;;;;;19.92;10.88;;;0.00;92.40;;;;;;5051569;28;20033;-60
2022/03/22 06:25:03;;;;;;;18.38;10.20;;;0.10;90.60;;;;;;5051642;28;20033;-60
2022/03/22 06:27:29;;;;;;;21.27;9.73;;;0.30;91.20;;;;;;5051541;28;20025;-60
2022/03/22 06:29:54;;;;;;;17.67;9.93;;;0.50;90.00;;;;;;5051419;28;20182;-60
2022/03/22 06:32:20;;;;;;;20.60;10.27;;;0.80;82.10;;;;;;5050319;28;20025;-60
2022/03/22 06:34:47;;;;;;;20.15;9.55;;;1.10;77.50;;;;;;5051460;28;20029;-60
2022/03/22 06:37:13;;;;;;;16.77;9.00;;;1.30;75.20;;;;;;5051581;28;20115;-60
2022/03/22 06:39:39;;;;;;;24.05;9.77;;;1.50;73.70;;;;;;5051373;28;20033;-60
2022/03/22 06:42:05;;;;;;;22.77;9.48;;;1.60;72.70;;;;;;5051419;28;20044;-60
2022/03/22 06:44:37;;;;;;;17.40;9.30;;;1.80;71.10;;;;;;5051580;28;20345;-60
2022/03/22 06:47:03;;;;;;;15.60;9.65;;;2.00;70.40;;;;;;5051319;28;20036;-60
2022/03/22 06:49:29;;;;;;;14.48;9.52;;;2.10;67.90;;;;;;5051543;28;20021;-60
2022/03/22 06:51:56;;;;;;;14.73;8.63;;;2.20;67.00;;;;;;5051397;28;20178;-60
2022/03/22 06:54:22;;;;;;;13.55;9.02;;;2.30;65.90;;;;;;5050057;28;20036;-60
2022/03/22 06:56:48;;;;;;;25.63;9.32;;;2.50;67.10;;;;;;5051074;28;20449;-60
2022/03/22 06:59:13;;;;;;;13.27;9.35;;;2.50;65.40;;;;;;5051250;28;20033;-60
2022/03/22 07:01:39;;;;;;;11.63;8.57;;;2.60;64.80;;;;;;5051319;28;20024;-60
2022/03/22 07:04:05;;;;;;;13.02;8.80;;;2.70;64.50;;;;;;5050017;28;20032;-60
2022/03/22 07:06:31;;;;;;;11.57;8.63;;;2.80;64.10;;;;;;5051242;28;20404;-60
2022/03/22 07:08:56;;;;;;;16.90;9.80;;;2.90;62.30;;;;;;5050887;28;20024;-60
2022/03/22 07:14:06;;;;;;;13.32;8.43;;;3.10;62.00;;;;;;5049973;28;20056;-60
2022/03/22 07:16:32;;;;;;;13.50;8.88;;;3.20;61.30;;;;;;5049993;28;20111;-60
2022/03/22 07:18:57;;;;;;;10.93;7.70;;;3.20;61.70;;;;;;5049917;28;20464;-60
2022/03/22 07:21:23;;;;;;;16.83;8.98;;;3.30;60.50;;;;;;5050696;28;20025;-60
2022/03/22 07:23:49;;;;;;;15.07;9.23;;;3.40;60.00;;;;;;5052264;28;20044;-60
2022/03/22 07:26:16;;;;;;;16.92;9.52;;;3.60;60.60;;;;;;5052581;28;20037;-60
2022/03/22 07:28:43;;;;;;;10.07;7.72;;;3.60;59.70;;;;;;5053970;28;20023;-60
2022/03/22 07:31:09;;;;;;;22.10;10.25;;;3.70;60.20;;;;;;5054416;28;20017;-60
2022/03/22 07:33:37;;;;;;;12.02;8.57;;;3.80;60.70;;;;;;5054876;28;20379;-60
2022/03/22 07:36:04;;;;;;;24.30;7.50;;;3.90;60.40;;;;;;5054813;28;20490;-60
2022/03/22 07:38:30;;;;;;;14.68;8.93;;;3.90;60.20;;;;;;5054812;28;20025;-60
2022/03/22 07:40:56;;;;;;;10.82;8.75;;;4.00;59.50;;;;;;5054525;28;20040;-60
2022/03/22 07:43:21;;;;;;;14.70;9.63;;;4.20;59.00;;;;;;5054615;28;20105;-61
2022/03/22 07:45:47;;;;;;;10.80;8.45;;;4.40;58.00;;;;;;5054417;28;20115;-60
2022/03/22 07:48:13;;;;;;;18.73;8.45;;;4.50;57.50;;;;;;5054633;28;20040;-61
2022/03/22 07:53:23;;;;;;;10.27;7.65;;;5.70;68.20;;;;;;5054542;28;20039;-60
2022/03/22 07:55:49;;;;;;;11.23;8.27;;;5.80;56.80;;;;;;5054337;28;20100;-60
2022/03/22 07:58:14;;;;;;;14.95;8.48;;;6.00;60.90;;;;;;5054345;28;20021;-61
2022/03/22 08:00:41;;;;;;;12.52;8.07;;;5.90;51.40;;;;;;5054275;28;20476;-60
2022/03/22 08:03:10;;;;;;;11.93;7.82;;;5.90;55.40;;;;;;5054381;28;20519;-60
2022/03/22 08:05:37;;;;;;;12.10;8.68;;;5.90;52.90;;;;;;5054232;28;20021;-61
2022/03/22 08:08:04;;;;;;;14.38;8.25;;;5.90;52.80;;;;;;5053987;28;20029;-61
2022/03/22 08:10:31;;;;;;;15.70;8.70;;;5.90;53.60;;;;;;5054191;28;20036;-61
2022/03/22 08:12:58;;;;;;;12.68;7.93;;;6.00;54.40;;;;;;5053733;28;20112;-61
2022/03/22 08:15:24;;;;;;;16.05;9.02;;;6.00;53.20;;;;;;5054038;28;20508;-60
2022/03/22 08:17:49;;;;;;;14.30;9.52;;;6.00;51.30;;;;;;5053900;28;20063;-60
2022/03/22 08:20:15;;;;;;;15.88;7.47;;;6.10;51.70;;;;;;5053911;28;20499;-61
2022/03/22 08:22:50;;;;;;;16.90;8.93;;;6.20;54.10;;;;;;5053881;28;20021;-60
2022/03/22 08:25:37;;;;;;;20.73;9.23;;;6.40;53.80;;;;;;5053843;28;20029;-61
2022/03/22 08:28:05;;;;;;;13.73;8.60;;;6.50;53.00;;;;;;5053456;28;20045;-61
2022/03/22 08:30:32;;;;;;;12.00;8.20;;;6.70;52.60;;;;;;5052460;28;20029;-61
2022/03/22 08:32:59;;;;;;;11.90;8.13;;;6.80;52.30;;;;;;5052430;28;20029;-60
2022/03/22 08:35:25;;;;;;;12.93;8.07;;;6.80;50.60;;;;;;5051305;28;20025;-61
2022/03/22 08:37:52;;;;;;;12.13;8.05;;;6.90;49.90;;;;;;5053607;28;20634;-60
2022/03/22 08:40:18;;;;;;;11.80;8.55;;;7.00;51.20;;;;;;5053697;28;20057;-61
2022/03/22 08:42:45;;;;;;;12.27;8.52;;;7.10;51.40;;;;;;5052290;28;20036;-61
2022/03/22 08:45:16;;;;;;;12.40;7.88;;;7.30;50.80;;;;;;5053628;28;20114;-61
2022/03/22 08:47:45;;;;;;;14.27;8.82;;;7.40;49.20;;;;;;5053196;28;20025;-61
2022/03/22 08:50:13;;;;;;;10.10;7.88;;;7.40;50.00;;;;;;5053331;28;20024;-60
2022/03/22 08:52:40;;;;;;;12.43;9.90;;;7.60;49.20;;;;;;5053200;28;20496;-61
2022/03/22 08:55:07;;;;;;;10.32;8.07;;;7.70;49.20;;;;;;5053390;28;20071;-60
2022/03/22 08:57:35;;;;;;;20.00;7.72;;;7.70;47.40;;;;;;5053388;28;20028;-60
2022/03/22 09:00:08;;;;;;;12.20;8.25;;;7.80;49.80;;;;;;5053417;28;20029;-60
2022/03/22 09:02:35;;;;;;;12.65;8.20;;;8.00;49.10;;;;;;5053431;28;20037;-61
2022/03/22 09:07:45;;;;;;;;;;;8.40;49.20;;;;;;5053533;28;20127;-60
2022/03/22 09:10:13;;;;;;;10.50;7.32;;;8.50;47.80;;;;;;5051717;28;19911;-61
2022/03/22 09:12:39;;;;;;;17.08;8.27;;;8.60;47.90;;;;;;5052789;28;20166;-61
2022/03/22 09:15:05;;;;;;;12.30;8.05;;;8.70;47.70;;;;;;5051635;28;20688;-61
2022/03/22 09:17:31;;;;;;;12.65;8.73;;;8.90;47.90;;;;;;5052882;28;20040;-61
2022/03/22 09:19:57;;;;;;;12.40;8.13;;;9.10;46.80;;;;;;5052649;28;20040;-61
2022/03/22 09:22:23;;;;;;;15.95;8.70;;;9.10;47.70;;;;;;5051508;28;20425;-61
2022/03/22 09:24:48;;;;;;;25.52;8.80;;;9.20;46.70;;;;;;5052680;28;20025;-61
2022/03/22 09:27:14;;;;;;;16.98;8.75;;;9.30;46.70;;;;;;5052641;28;20057;-61
2022/03/22 09:29:40;;;;;;;11.65;8.25;;;9.50;48.40;;;;;;5052524;28;20448;-61
2022/03/22 09:32:06;;;;;;;14.88;8.70;;;9.70;47.30;;;;;;5051471;28;20025;-61
2022/03/22 09:34:32;;;;;;;10.60;7.38;;;9.90;45.60;;;;;;5052572;28;20013;-61
2022/03/22 09:36:59;;;;;;;15.82;7.82;;;9.90;44.60;;;;;;5052186;28;20036;-61
2022/03/22 09:39:25;;;;;;;15.77;9.95;;;10.10;45.90;;;;;;5061994;28;20044;-61
2022/03/22 09:41:51;;;;;;;15.50;8.85;;;10.20;44.80;;;;;;5072347;28;20435;-61
2022/03/22 09:44:18;;;;;;;19.98;8.20;;;10.50;43.80;;;;;;5072237;28;20020;-61
2022/03/22 09:46:48;;;;;;;13.38;7.60;;;10.50;43.20;;;;;;5071922;28;20110;-61
2022/03/22 09:49:15;;;;;;;18.25;7.57;;;10.60;41.20;;;;;;5072086;28;20021;-60
2022/03/22 09:51:45;;;;;;;17.70;8.05;;;10.70;42.30;;;;;;5072111;28;20029;-61
2022/03/22 09:54:16;;;;;;;16.25;8.05;;;10.80;41.70;;;;;;5072187;28;20027;-61
2022/03/22 09:56:52;;;;;;;18.73;8.55;;;10.80;39.90;;;;;;5072058;28;20111;-61
2022/03/22 09:59:19;;;;;;;11.15;7.80;;;11.00;41.80;;;;;;5072046;28;20090;-61
2022/03/22 10:01:45;;;;;;;9.35;7.50;;;11.10;41.20;;;;;;5071906;28;20134;-61
2022/03/22 10:04:13;;;;;;;17.88;7.85;;;11.40;40.70;;;;;;5072127;28;20047;-61
2022/03/22 10:06:54;;;;;;;13.00;8.73;;;11.60;41.30;;;;;;5070498;28;20028;-61
2022/03/22 10:09:30;;;;;;;9.98;7.50;;;11.80;41.60;;;;;;5071955;28;20111;-61
2022/03/22 10:11:56;;;;;;;8.93;7.32;;;11.70;41.10;;;;;;5071661;28;20039;-61
2022/03/22 10:14:40;;;;;;;19.48;9.25;;;11.80;41.70;;;;;;5071806;28;20044;-61
2022/03/22 10:17:14;;;;;;;15.88;8.57;;;12.20;41.50;;;;;;5071862;28;20039;-61
2022/03/22 10:19:41;;;;;;;;;;;12.50;42.20;;;;;;5072251;28;20032;-61
2022/03/22 10:22:10;;;;;;;13.40;7.68;;;12.80;39.80;;;;;;5071757;28;19905;-61
2022/03/22 10:24:55;;;;;;;12.95;7.75;;;12.70;39.10;;;;;;5071772;28;20040;-61
2022/03/22 10:27:28;;;;;;;12.38;7.32;;;12.60;38.70;;;;;;5071664;28;20052;-61
2022/03/22 10:29:58;;;;;;;11.55;8.40;;;12.70;40.10;;;;;;5071579;28;20071;-61
2022/03/22 10:32:37;;;;;;;13.80;7.97;;;12.90;40.60;;;;;;5071695;28;20020;-61
2022/03/22 10:35:14;;;;;;;11.77;8.68;;;13.10;40.50;;;;;;5071701;28;20029;-61
2022/03/22 10:37:45;;;;;;;16.10;8.63;;;13.40;39.40;;;;;;5071495;28;20024;-61
2022/03/22 10:40:33;;;;;;;11.43;8.10;;;13.60;38.80;;;;;;5071727;28;20036;-61
2022/03/22 10:43:01;;;;;;;15.23;8.75;;;13.80;38.20;;;;;;5071385;28;20038;-61
2022/03/22 10:45:28;;;;;;;16.10;7.82;;;13.80;38.70;;;;;;5071546;28;20082;-61
2022/03/22 10:47:55;;;;;;;11.70;7.97;;;14.00;37.50;;;;;;5071222;28;20494;-61
2022/03/22 10:50:21;;;;;;;22.60;9.38;;;13.80;37.50;;;;;;5071607;28;20029;-61
2022/03/22 10:52:59;;;;;;;13.98;8.52;;;14.20;36.70;;;;;;5071450;28;20031;-61
2022/03/22 10:55:27;;;;;;;12.52;7.32;;;14.40;34.90;;;;;;5071526;28;20025;-61
2022/03/22 10:57:56;;;;;;;10.05;8.02;;;14.80;36.90;;;;;;5070452;28;20104;-61
2022/03/22 11:00:22;;;;;;;14.55;8.35;;;15.30;35.10;;;;;;5075355;28;20051;-61
2022/03/22 11:02:50;;;;;;;12.77;8.07;;;16.10;33.50;;;;;;5075443;28;20063;-62
2022/03/22 11:05:19;;;;;;;15.93;8.23;;;17.70;33.50;;;;;;5075595;28;20090;-62
2022/03/22 11:07:49;;;;;;;11.45;7.20;;;18.20;30.00;;;;;;5075306;28;20028;-62
2022/03/22 11:10:29;;;;;;;10.40;7.63;;;19.80;30.00;;;;;;5075321;28;20395;-59
2022/03/22 11:12:57;;;;;;;19.20;7.03;;;20.50;29.10;;;;;;5075064;28;20032;-59
2022/03/22 11:15:26;;;;;;;20.25;8.07;;;21.00;27.50;;;;;;5075087;28;20036;-59
2022/03/22 11:17:52;;;;;;;26.08;6.95;;;20.80;27.80;;;;;;5075009;28;20025;-60
2022/03/22 11:20:18;;;;;;;8.82;6.55;;;20.50;26.50;;;;;;5074223;28;20025;-59
2022/03/22 11:22:54;;;;;;;16.20;8.77;;;20.40;27.50;;;;;;5074154;28;20383;-60
2022/03/22 11:25:28;;;;;;;18.77;7.38;;;21.20;27.30;;;;;;5074331;28;20028;-60
2022/03/22 11:28:03;;;;;;;17.40;6.95;;;22.10;27.70;;;;;;5073755;28;20044;-60
2022/03/22 11:30:30;;;;;;;8.68;5.82;;;22.90;26.30;;;;;;5074802;28;20021;-60
2022/03/22 11:35:57;;;;;;;10.27;5.22;;;24.10;25.70;;;;;;5074985;28;20027;-60
2022/03/22 11:38:44;;;;;;;10.48;5.47;;;25.00;25.30;;;;;;5073517;28;20032;-60
2022/03/22 11:44:23;;;;;;;19.17;5.32;;;24.20;24.20;;;;;;5074690;28;20089;-60
2022/03/22 11:47:20;;;;;;;6.93;5.05;;;24.10;24.30;;;;;;5074399;28;20020;-60
2022/03/22 11:49:48;;;;;;;9.18;4.75;;;24.60;24.10;;;;;;5074470;28;20376;-60
2022/03/22 11:52:15;;;;;;;13.35;4.88;;;25.30;24.10;;;;;;5074376;28;20031;-61
2022/03/22 11:54:52;;;;;;;9.27;4.47;;;25.20;24.00;;;;;;5074468;28;20032;-61
2022/03/22 11:57:17;;;;;;;14.88;6.05;;;24.90;23.80;;;;;;5074612;28;20032;-60
2022/03/22 11:59:47;;;;;;;12.40;5.65;;;24.60;24.10;;;;;;5074086;28;20047;-60
2022/03/22 12:02:18;;;;;;;13.73;5.00;;;24.20;23.50;;;;;;5074271;28;20078;-60
2022/03/22 12:04:54;;;;;;;21.45;4.60;;;24.80;23.90;;;;;;5074053;28;20103;-60
2022/03/22 12:07:35;;;;;;;8.73;4.75;;;23.80;23.40;;;;;;5074280;28;20054;-60
2022/03/22 12:10:06;;;;;;;12.60;4.93;;;23.40;23.40;;;;;;5073922;28;20028;-62
2022/03/22 12:12:33;;;;;;;9.30;5.18;;;24.90;24.40;;;;;;5074026;28;20035;-60
2022/03/22 12:15:00;;;;;;;7.63;4.47;;;25.40;24.10;;;;;;5073840;28;20446;-60
2022/03/22 12:17:27;;;;;;;11.05;5.20;;;24.60;22.90;;;;;;5074249;28;20429;-60
2022/03/22 12:20:02;;;;;;;7.57;4.63;;;24.50;23.70;;;;;;5073971;28;20480;-60
2022/03/22 12:22:29;;;;;;;13.73;5.03;;;25.00;23.20;;;;;;5074215;28;20052;-60
2022/03/22 12:24:58;;;;;;;11.30;5.35;;;25.20;24.20;;;;;;5073875;28;20028;-60
2022/03/22 12:27:24;;;;;;;13.80;5.68;;;26.30;23.60;;;;;;5073590;28;20028;-61
2022/03/22 12:29:49;;;;;;;7.32;5.47;;;26.50;23.90;;;;;;5072435;28;20016;-60
2022/03/22 12:32:18;;;;;;;9.48;5.28;;;25.10;23.30;;;;;;5073888;28;20013;-61
2022/03/22 12:34:48;;;;;;;7.97;4.72;;;25.20;23.80;;;;;;5073854;28;20029;-61
2022/03/22 12:37:16;;;;;;;17.05;5.10;;;26.10;23.50;;;;;;5073772;28;20082;-61
2022/03/22 12:39:43;;;;;;;11.00;5.10;;;25.70;23.40;;;;;;5073390;28;20063;-61
2022/03/22 12:42:11;;;;;;;7.40;4.88;;;25.80;22.90;;;;;;5073558;28;20371;-61
2022/03/22 12:44:37;;;;;;;10.95;4.78;;;26.20;24.20;;;;;;5073673;28;20032;-61
2022/03/22 12:47:07;;;;;;;9.27;4.93;;;27.50;23.80;;;;;;5073508;28;20025;-61
2022/03/22 12:49:39;;;;;;;16.58;5.05;;;27.30;23.20;;;;;;5073488;28;20025;-61
2022/03/22 12:52:07;;;;;;;4.95;4.45;;;26.10;22.40;;;;;;5073382;28;20020;-60
2022/03/22 12:54:43;;;;;;;31.00;5.05;;;25.70;22.60;;;;;;5073363;28;20032;-60
2022/03/22 12:57:12;;;;;;;8.60;4.28;;;25.40;23.20;;;;;;5073305;28;20028;-61
2022/03/22 12:59:38;;;;;;;9.25;4.32;;;24.70;23.90;;;;;;5073222;28;20115;-61
2022/03/22 13:02:07;;;;;;;7.20;3.92;;;24.70;23.50;;;;;;5073347;28;20029;-60
2022/03/22 13:04:46;;;;;;;6.32;4.13;;;25.00;22.70;;;;;;5073332;28;20552;-61
2022/03/22 13:07:22;;;;;;;6.10;4.03;;;24.30;22.80;;;;;;5072882;28;20103;-60
2022/03/22 13:12:34;;;;;;;14.45;3.85;;;24.40;23.10;;;;;;5073176;28;20093;-61
2022/03/22 13:15:14;;;;;;;15.18;4.18;;;25.80;23.50;;;;;;5072939;28;20039;-61
2022/03/22 13:17:46;;;;;;;14.75;4.20;;;27.00;23.30;;;;;;5072950;28;20044;-61
2022/03/22 13:20:17;;;;;;;8.23;3.50;;;27.10;23.00;;;;;;5072951;28;20243;-61
2022/03/22 13:22:57;;;;;;;9.43;3.35;;;27.40;22.90;;;;;;5072505;28;20024;-61
2022/03/22 13:25:28;;;;;;;15.65;3.75;;;26.90;21.20;;;;;;5072769;28;20479;-61
2022/03/22 13:28:06;;;;;;;5.97;3.85;;;25.90;22.10;;;;;;5072550;28;20075;-61